sensor_id;sensor_type;location;lat;lon;timestamp;temperature;humidity
42973;DHT22;28610;51.214;6.962;2022-10-04T00:00:25;11.30;99.90
42973;DHT22;28610;51.214;6.962;2022-10-04T00:03:16;11.40;99.90
42973;DHT22;28610;51.214;6.962;2022-10-04T00:06:10;11.40;99.90
42973;DHT22;28610;51.214;6.962;2022-10-04T00:08:59;11.40;99.90
42973;DHT22;28610;51.214;6.962;2022-10-04T00:11:51;11.40;99.90
42973;DHT22;28610;51.214;6.962;2022-10-04T00:14:38;11.50;99.90
42973;DHT22;28610;51.214;6.962;2022-10-04T00:17:29;11.50;99.90
42973;DHT22;28610;51.214;6.962;2022-10-04T00:23:44;11.50;99.90
42973;DHT22;28610;51.214;6.962;2022-10-04T00:30:19;11.50;99.90
42973;DHT22;28610;51.214;6.962;2022-10-04T00:33:05;11.50;99.90
42973;DHT22;28610;51.214;6.962;2022-10-04T00:35:50;11.50;99.90
42973;DHT22;28610;51.214;6.962;2022-10-04T00:38:36;11.50;99.90
42973;DHT22;28610;51.214;6.962;2022-10-04T00:41:22;11.50;99.90
42973;DHT22;28610;51.214;6.962;2022-10-04T00:44:16;11.50;99.90
42973;DHT22;28610;51.214;6.962;2022-10-04T00:47:13;11.50;99.90
42973;DHT22;28610;51.214;6.962;2022-10-04T00:50:09;11.50;99.90
42973;DHT22;28610;51.214;6.962;2022-10-04T00:52:58;11.50;99.90
42973;DHT22;28610;51.214;6.962;2022-10-04T00:55:47;11.40;99.90
42973;DHT22;28610;51.214;6.962;2022-10-04T00:58:45;11.40;99.90
42973;DHT22;28610;51.214;6.962;2022-10-04T01:01:34;12.00;99.90
42973;DHT22;28610;51.214;6.962;2022-10-04T01:04:27;11.30;99.90
42973;DHT22;28610;51.214;6.962;2022-10-04T01:07:16;11.30;99.90
42973;DHT22;28610;51.214;6.962;2022-10-04T01:10:08;11.20;99.90
42973;DHT22;28610;51.214;6.962;2022-10-04T01:12:59;11.20;99.90
42973;DHT22;28610;51.214;6.962;2022-10-04T01:15:53;11.20;99.90
42973;DHT22;28610;51.214;6.962;2022-10-04T01:18:41;11.10;99.90
42973;DHT22;28610;51.214;6.962;2022-10-04T01:21:29;11.10;99.90
42973;DHT22;28610;51.214;6.962;2022-10-04T01:24:20;11.00;99.90
42973;DHT22;28610;51.214;6.962;2022-10-04T01:27:30;11.00;99.90
42973;DHT22;28610;51.214;6.962;2022-10-04T01:30:16;11.00;99.90
42973;DHT22;28610;51.214;6.962;2022-10-04T01:33:03;11.00;99.90
42973;DHT22;28610;51.214;6.962;2022-10-04T01:35:50;11.00;99.90
42973;DHT22;28610;51.214;6.962;2022-10-04T01:38:36;10.90;99.90
42973;DHT22;28610;51.214;6.962;2022-10-04T01:41:26;11.00;99.90
42973;DHT22;28610;51.214;6.962;2022-10-04T01:44:19;11.00;99.90
42973;DHT22;28610;51.214;6.962;2022-10-04T01:47:10;10.90;99.90
42973;DHT22;28610;51.214;6.962;2022-10-04T01:49:59;10.90;99.90
42973;DHT22;28610;51.214;6.962;2022-10-04T01:52:48;10.90;99.90
42973;DHT22;28610;51.214;6.962;2022-10-04T01:55:36;10.90;99.90
42973;DHT22;28610;51.214;6.962;2022-10-04T01:58:27;10.90;99.90
42973;DHT22;28610;51.214;6.962;2022-10-04T02:01:15;10.90;99.90
42973;DHT22;28610;51.214;6.962;2022-10-04T02:04:08;10.90;99.90
42973;DHT22;28610;51.214;6.962;2022-10-04T02:06:57;10.80;99.90
42973;DHT22;28610;51.214;6.962;2022-10-04T02:09:46;10.80;99.90
42973;DHT22;28610;51.214;6.962;2022-10-04T02:12:34;10.80;99.90
42973;DHT22;28610;51.214;6.962;2022-10-04T02:15:23;10.80;99.90
42973;DHT22;28610;51.214;6.962;2022-10-04T02:18:12;10.80;99.90
42973;DHT22;28610;51.214;6.962;2022-10-04T02:20:58;10.80;99.90
42973;DHT22;28610;51.214;6.962;2022-10-04T02:23:44;10.70;99.90
42973;DHT22;28610;51.214;6.962;2022-10-04T02:26:31;10.70;99.90
42973;DHT22;28610;51.214;6.962;2022-10-04T02:29:17;10.70;99.90
42973;DHT22;28610;51.214;6.962;2022-10-04T02:32:04;10.70;99.90
42973;DHT22;28610;51.214;6.962;2022-10-04T02:35:08;10.60;99.90
42973;DHT22;28610;51.214;6.962;2022-10-04T02:38:03;10.60;99.90
42973;DHT22;28610;51.214;6.962;2022-10-04T02:40:56;10.60;99.90
42973;DHT22;28610;51.214;6.962;2022-10-04T02:43:48;10.60;99.90
42973;DHT22;28610;51.214;6.962;2022-10-04T02:46:41;10.60;99.90
42973;DHT22;28610;51.214;6.962;2022-10-04T02:49:32;10.50;99.90
42973;DHT22;28610;51.214;6.962;2022-10-04T02:52:25;10.50;99.90
42973;DHT22;28610;51.214;6.962;2022-10-04T02:55:17;10.50;99.90
42973;DHT22;28610;51.214;6.962;2022-10-04T02:58:08;10.50;99.90
42973;DHT22;28610;51.214;6.962;2022-10-04T03:00:56;10.60;99.90
42973;DHT22;28610;51.214;6.962;2022-10-04T03:03:44;10.60;99.90
42973;DHT22;28610;51.214;6.962;2022-10-04T03:06:32;10.80;99.90
42973;DHT22;28610;51.214;6.962;2022-10-04T03:09:19;10.80;99.90
42973;DHT22;28610;51.214;6.962;2022-10-04T03:12:06;10.90;99.90
42973;DHT22;28610;51.214;6.962;2022-10-04T03:14:54;11.00;99.90
42973;DHT22;28610;51.214;6.962;2022-10-04T03:17:40;11.00;99.90
42973;DHT22;28610;51.214;6.962;2022-10-04T03:20:26;11.10;99.90
42973;DHT22;28610;51.214;6.962;2022-10-04T03:23:15;11.10;99.90
42973;DHT22;28610;51.214;6.962;2022-10-04T03:26:04;11.10;99.90
42973;DHT22;28610;51.214;6.962;2022-10-04T03:28:55;11.10;99.90
42973;DHT22;28610;51.214;6.962;2022-10-04T03:31:43;11.20;99.90
42973;DHT22;28610;51.214;6.962;2022-10-04T03:34:34;11.00;99.90
42973;DHT22;28610;51.214;6.962;2022-10-04T03:37:20;10.90;99.90
42973;DHT22;28610;51.214;6.962;2022-10-04T03:40:09;10.90;99.90
42973;DHT22;28610;51.214;6.962;2022-10-04T03:42:56;10.90;99.90
42973;DHT22;28610;51.214;6.962;2022-10-04T03:45:42;10.80;99.90
42973;DHT22;28610;51.214;6.962;2022-10-04T03:48:33;10.90;99.90
42973;DHT22;28610;51.214;6.962;2022-10-04T03:51:22;10.90;99.90
42973;DHT22;28610;51.214;6.962;2022-10-04T03:54:09;10.90;99.90
42973;DHT22;28610;51.214;6.962;2022-10-04T03:57:01;10.90;99.90
42973;DHT22;28610;51.214;6.962;2022-10-04T03:59:47;11.00;99.90
42973;DHT22;28610;51.214;6.962;2022-10-04T04:02:36;11.10;99.90
42973;DHT22;28610;51.214;6.962;2022-10-04T04:05:27;11.00;99.90
42973;DHT22;28610;51.214;6.962;2022-10-04T04:08:19;11.00;99.90
42973;DHT22;28610;51.214;6.962;2022-10-04T04:11:16;10.90;99.90
42973;DHT22;28610;51.214;6.962;2022-10-04T04:14:07;10.90;99.90
42973;DHT22;28610;51.214;6.962;2022-10-04T04:17:16;10.80;99.90
42973;DHT22;28610;51.214;6.962;2022-10-04T04:20:06;10.80;99.90
42973;DHT22;28610;51.214;6.962;2022-10-04T04:23:00;10.80;99.90
42973;DHT22;28610;51.214;6.962;2022-10-04T04:25:47;10.80;99.90
42973;DHT22;28610;51.214;6.962;2022-10-04T04:28:37;10.80;99.90
42973;DHT22;28610;51.214;6.962;2022-10-04T04:31:28;10.70;99.90
42973;DHT22;28610;51.214;6.962;2022-10-04T04:34:19;10.60;99.90
42973;DHT22;28610;51.214;6.962;2022-10-04T04:37:09;11.10;99.90
42973;DHT22;28610;51.214;6.962;2022-10-04T04:39:55;10.50;99.90
42973;DHT22;28610;51.214;6.962;2022-10-04T04:42:41;10.50;99.90
42973;DHT22;28610;51.214;6.962;2022-10-04T04:45:29;10.40;99.90
42973;DHT22;28610;51.214;6.962;2022-10-04T04:48:17;10.40;99.90
42973;DHT22;28610;51.214;6.962;2022-10-04T04:51:03;10.30;99.90
42973;DHT22;28610;51.214;6.962;2022-10-04T04:53:50;10.20;99.90
42973;DHT22;28610;51.214;6.962;2022-10-04T04:56:37;10.20;99.90
42973;DHT22;28610;51.214;6.962;2022-10-04T04:59:23;10.20;99.90
42973;DHT22;28610;51.214;6.962;2022-10-04T05:02:32;10.10;99.90
42973;DHT22;28610;51.214;6.962;2022-10-04T05:05:22;9.70;99.90
42973;DHT22;28610;51.214;6.962;2022-10-04T05:08:13;10.10;99.90
42973;DHT22;28610;51.214;6.962;2022-10-04T05:11:04;10.10;99.90
42973;DHT22;28610;51.214;6.962;2022-10-04T05:13:54;10.10;99.90
42973;DHT22;28610;51.214;6.962;2022-10-04T05:16:44;10.00;99.90
42973;DHT22;28610;51.214;6.962;2022-10-04T05:19:33;10.00;99.90
42973;DHT22;28610;51.214;6.962;2022-10-04T05:22:23;10.00;99.90
42973;DHT22;28610;51.214;6.962;2022-10-04T05:25:14;10.00;99.90
42973;DHT22;28610;51.214;6.962;2022-10-04T05:28:01;10.00;99.90
42973;DHT22;28610;51.214;6.962;2022-10-04T05:30:57;10.10;99.90
42973;DHT22;28610;51.214;6.962;2022-10-04T05:33:49;10.10;99.90
42973;DHT22;28610;51.214;6.962;2022-10-04T05:37:18;10.10;99.90
42973;DHT22;28610;51.214;6.962;2022-10-04T05:40:22;10.10;99.90
42973;DHT22;28610;51.214;6.962;2022-10-04T05:43:20;10.10;99.90
42973;DHT22;28610;51.214;6.962;2022-10-04T05:46:16;10.10;99.90
42973;DHT22;28610;51.214;6.962;2022-10-04T05:49:07;10.20;99.90
42973;DHT22;28610;51.214;6.962;2022-10-04T05:51:59;10.20;99.90
42973;DHT22;28610;51.214;6.962;2022-10-04T05:54:44;10.20;99.90
42973;DHT22;28610;51.214;6.962;2022-10-04T05:57:36;10.10;99.90
42973;DHT22;28610;51.214;6.962;2022-10-04T06:00:34;10.10;99.90
42973;DHT22;28610;51.214;6.962;2022-10-04T06:03:33;10.10;99.90
42973;DHT22;28610;51.214;6.962;2022-10-04T06:06:27;10.10;99.90
42973;DHT22;28610;51.214;6.962;2022-10-04T06:09:24;10.10;99.90
42973;DHT22;28610;51.214;6.962;2022-10-04T06:12:21;10.20;99.90
42973;DHT22;28610;51.214;6.962;2022-10-04T06:15:40;10.20;99.90
42973;DHT22;28610;51.214;6.962;2022-10-04T06:18:45;10.20;99.90
42973;DHT22;28610;51.214;6.962;2022-10-04T06:21:33;10.30;99.90
42973;DHT22;28610;51.214;6.962;2022-10-04T06:24:23;10.40;99.90
42973;DHT22;28610;51.214;6.962;2022-10-04T06:27:14;10.70;99.90
42973;DHT22;28610;51.214;6.962;2022-10-04T06:30:03;10.40;99.90
42973;DHT22;28610;51.214;6.962;2022-10-04T06:33:05;10.50;99.90
42973;DHT22;28610;51.214;6.962;2022-10-04T06:39:25;10.60;99.90
42973;DHT22;28610;51.214;6.962;2022-10-04T06:42:50;10.70;99.90
42973;DHT22;28610;51.214;6.962;2022-10-04T06:45:49;10.80;99.90
42973;DHT22;28610;51.214;6.962;2022-10-04T06:49:14;11.00;99.90
42973;DHT22;28610;51.214;6.962;2022-10-04T06:52:33;11.20;99.80
42973;DHT22;28610;51.214;6.962;2022-10-04T06:55:30;11.20;99.20
42973;DHT22;28610;51.214;6.962;2022-10-04T06:59:01;11.30;99.50
42973;DHT22;28610;51.214;6.962;2022-10-04T07:01:50;11.40;99.40
42973;DHT22;28610;51.214;6.962;2022-10-04T07:04:45;11.40;99.10
42973;DHT22;28610;51.214;6.962;2022-10-04T07:07:35;11.40;99.00
42973;DHT22;28610;51.214;6.962;2022-10-04T07:10:28;11.40;99.10
42973;DHT22;28610;51.214;6.962;2022-10-04T07:13:38;11.30;99.10
42973;DHT22;28610;51.214;6.962;2022-10-04T07:16:31;11.40;99.20
42973;DHT22;28610;51.214;6.962;2022-10-04T07:19:32;11.50;99.00
42973;DHT22;28610;51.214;6.962;2022-10-04T07:22:26;11.60;98.90
42973;DHT22;28610;51.214;6.962;2022-10-04T07:25:14;11.70;98.50
42973;DHT22;28610;51.214;6.962;2022-10-04T07:28:10;11.80;98.50
42973;DHT22;28610;51.214;6.962;2022-10-04T07:31:21;11.90;98.00
42973;DHT22;28610;51.214;6.962;2022-10-04T07:34:12;12.00;97.90
42973;DHT22;28610;51.214;6.962;2022-10-04T07:37:05;12.00;97.50
42973;DHT22;28610;51.214;6.962;2022-10-04T07:39:57;12.10;97.60
42973;DHT22;28610;51.214;6.962;2022-10-04T07:42:47;12.20;97.70
42973;DHT22;28610;51.214;6.962;2022-10-04T07:45:38;12.20;96.90
42973;DHT22;28610;51.214;6.962;2022-10-04T07:48:24;12.20;97.60
42973;DHT22;28610;51.214;6.962;2022-10-04T07:51:18;12.30;97.40
42973;DHT22;28610;51.214;6.962;2022-10-04T07:54:14;12.40;97.50
42973;DHT22;28610;51.214;6.962;2022-10-04T07:57:10;12.40;97.40
42973;DHT22;28610;51.214;6.962;2022-10-04T08:00:03;12.60;97.20
42973;DHT22;28610;51.214;6.962;2022-10-04T08:03:14;12.60;96.90
42973;DHT22;28610;51.214;6.962;2022-10-04T08:06:10;12.80;96.70
42973;DHT22;28610;51.214;6.962;2022-10-04T08:09:13;12.80;96.70
42973;DHT22;28610;51.214;6.962;2022-10-04T08:12:08;12.80;95.90
42973;DHT22;28610;51.214;6.962;2022-10-04T08:15:17;12.90;96.10
42973;DHT22;28610;51.214;6.962;2022-10-04T08:18:20;12.90;95.90
42973;DHT22;28610;51.214;6.962;2022-10-04T08:21:09;12.70;95.30
42973;DHT22;28610;51.214;6.962;2022-10-04T08:24:07;12.70;96.10
42973;DHT22;28610;51.214;6.962;2022-10-04T08:27:11;12.80;96.20
42973;DHT22;28610;51.214;6.962;2022-10-04T08:30:10;12.90;96.00
42973;DHT22;28610;51.214;6.962;2022-10-04T08:33:04;12.80;95.80
42973;DHT22;28610;51.214;6.962;2022-10-04T08:36:00;12.70;96.50
42973;DHT22;28610;51.214;6.962;2022-10-04T08:38:51;12.70;96.60
42973;DHT22;28610;51.214;6.962;2022-10-04T08:42:21;12.70;96.70
42973;DHT22;28610;51.214;6.962;2022-10-04T08:45:46;12.90;96.50
42973;DHT22;28610;51.214;6.962;2022-10-04T08:59:14;13.10;95.80
42973;DHT22;28610;51.214;6.962;2022-10-04T09:02:34;13.40;94.90
42973;DHT22;28610;51.214;6.962;2022-10-04T09:05:52;13.60;94.40
42973;DHT22;28610;51.214;6.962;2022-10-04T09:09:21;13.80;93.20
42973;DHT22;28610;51.214;6.962;2022-10-04T09:12:27;14.00;93.70
42973;DHT22;28610;51.214;6.962;2022-10-04T09:18:48;13.80;93.20
42973;DHT22;28610;51.214;6.962;2022-10-04T09:21:42;13.90;93.50
42973;DHT22;28610;51.214;6.962;2022-10-04T09:24:59;13.90;92.80
42973;DHT22;28610;51.214;6.962;2022-10-04T09:28:09;13.90;93.20
42973;DHT22;28610;51.214;6.962;2022-10-04T09:31:20;14.00;93.10
42973;DHT22;28610;51.214;6.962;2022-10-04T09:34:26;14.00;93.20
42973;DHT22;28610;51.214;6.962;2022-10-04T09:37:46;14.80;99.90
42973;DHT22;28610;51.214;6.962;2022-10-04T09:44:07;14.50;91.50
42973;DHT22;28610;51.214;6.962;2022-10-04T09:47:24;14.60;92.60
42973;DHT22;28610;51.214;6.962;2022-10-04T09:50:55;14.80;91.60
42973;DHT22;28610;51.214;6.962;2022-10-04T09:54:01;15.20;91.10
42973;DHT22;28610;51.214;6.962;2022-10-04T09:57:03;15.30;90.80
42973;DHT22;28610;51.214;6.962;2022-10-04T10:00:05;15.30;90.70
42973;DHT22;28610;51.214;6.962;2022-10-04T10:03:21;15.60;90.10
42973;DHT22;28610;51.214;6.962;2022-10-04T10:06:35;15.90;86.80
42973;DHT22;28610;51.214;6.962;2022-10-04T10:09:30;16.20;85.60
42973;DHT22;28610;51.214;6.962;2022-10-04T10:12:53;17.70;77.80
42973;DHT22;28610;51.214;6.962;2022-10-04T10:16:05;19.40;67.30
42973;DHT22;28610;51.214;6.962;2022-10-04T10:19:05;21.20;59.40
42973;DHT22;28610;51.214;6.962;2022-10-04T10:22:08;21.70;53.20
42973;DHT22;28610;51.214;6.962;2022-10-04T10:25:20;21.30;53.50
42973;DHT22;28610;51.214;6.962;2022-10-04T10:28:38;22.50;50.80
42973;DHT22;28610;51.214;6.962;2022-10-04T10:31:49;23.00;47.40
42973;DHT22;28610;51.214;6.962;2022-10-04T10:35:12;22.70;47.20
42973;DHT22;28610;51.214;6.962;2022-10-04T10:38:14;23.60;45.00
42973;DHT22;28610;51.214;6.962;2022-10-04T10:41:29;23.20;42.40
42973;DHT22;28610;51.214;6.962;2022-10-04T10:44:31;24.00;43.10
42973;DHT22;28610;51.214;6.962;2022-10-04T10:47:28;24.30;65.50
42973;DHT22;28610;51.214;6.962;2022-10-04T10:50:32;24.90;39.70
42973;DHT22;28610;51.214;6.962;2022-10-04T10:54:16;24.50;38.60
42973;DHT22;28610;51.214;6.962;2022-10-04T10:57:15;24.70;38.90
42973;DHT22;28610;51.214;6.962;2022-10-04T11:00:20;23.60;43.20
42973;DHT22;28610;51.214;6.962;2022-10-04T11:03:38;21.10;51.60
42973;DHT22;28610;51.214;6.962;2022-10-04T11:07:00;19.90;56.90
42973;DHT22;28610;51.214;6.962;2022-10-04T11:10:10;19.40;60.70
42973;DHT22;28610;51.214;6.962;2022-10-04T11:20:01;18.70;65.90
42973;DHT22;28610;51.214;6.962;2022-10-04T11:23:41;18.50;65.70
42973;DHT22;28610;51.214;6.962;2022-10-04T11:26:55;18.40;67.50
42973;DHT22;28610;51.214;6.962;2022-10-04T11:29:53;18.50;69.70
42973;DHT22;28610;51.214;6.962;2022-10-04T11:36:36;18.30;71.40
42973;DHT22;28610;51.214;6.962;2022-10-04T11:39:44;18.40;67.20
42973;DHT22;28610;51.214;6.962;2022-10-04T11:42:43;18.40;66.80
42973;DHT22;28610;51.214;6.962;2022-10-04T11:45:51;18.50;67.50
42973;DHT22;28610;51.214;6.962;2022-10-04T11:48:49;18.40;68.40
42973;DHT22;28610;51.214;6.962;2022-10-04T11:51:57;18.10;66.50
42973;DHT22;28610;51.214;6.962;2022-10-04T11:55:22;18.30;68.50
42973;DHT22;28610;51.214;6.962;2022-10-04T11:58:16;18.20;70.80
42973;DHT22;28610;51.214;6.962;2022-10-04T12:01:25;18.30;70.50
42973;DHT22;28610;51.214;6.962;2022-10-04T12:04:34;18.50;69.90
42973;DHT22;28610;51.214;6.962;2022-10-04T12:07:31;18.30;66.40
42973;DHT22;28610;51.214;6.962;2022-10-04T12:10:22;18.40;69.30
42973;DHT22;28610;51.214;6.962;2022-10-04T12:13:41;18.50;69.10
42973;DHT22;28610;51.214;6.962;2022-10-04T12:16:50;18.60;70.30
42973;DHT22;28610;51.214;6.962;2022-10-04T12:20:05;18.70;68.00
42973;DHT22;28610;51.214;6.962;2022-10-04T12:23:25;18.70;66.50
42973;DHT22;28610;51.214;6.962;2022-10-04T12:26:43;18.80;67.30
42973;DHT22;28610;51.214;6.962;2022-10-04T12:30:21;18.60;66.80
42973;DHT22;28610;51.214;6.962;2022-10-04T12:33:13;18.60;67.60
42973;DHT22;28610;51.214;6.962;2022-10-04T12:36:10;18.80;64.90
42973;DHT22;28610;51.214;6.962;2022-10-04T12:42:24;18.90;65.10
42973;DHT22;28610;51.214;6.962;2022-10-04T12:45:27;18.80;63.80
42973;DHT22;28610;51.214;6.962;2022-10-04T12:48:37;18.80;64.90
42973;DHT22;28610;51.214;6.962;2022-10-04T12:51:42;18.90;65.40
42973;DHT22;28610;51.214;6.962;2022-10-04T12:54:37;18.90;65.00
42973;DHT22;28610;51.214;6.962;2022-10-04T12:57:43;19.60;89.50
42973;DHT22;28610;51.214;6.962;2022-10-04T13:00:35;19.00;64.40
42973;DHT22;28610;51.214;6.962;2022-10-04T13:03:33;18.90;62.50
42973;DHT22;28610;51.214;6.962;2022-10-04T13:06:30;19.00;63.90
42973;DHT22;28610;51.214;6.962;2022-10-04T13:09:26;19.00;63.30
42973;DHT22;28610;51.214;6.962;2022-10-04T13:12:26;19.00;63.40
42973;DHT22;28610;51.214;6.962;2022-10-04T13:15:23;19.00;61.70
42973;DHT22;28610;51.214;6.962;2022-10-04T13:18:17;19.10;61.50
42973;DHT22;28610;51.214;6.962;2022-10-04T13:21:08;19.00;59.40
42973;DHT22;28610;51.214;6.962;2022-10-04T13:24:02;19.20;61.90
42973;DHT22;28610;51.214;6.962;2022-10-04T13:26:53;19.20;63.00
42973;DHT22;28610;51.214;6.962;2022-10-04T13:29:48;19.30;62.30
42973;DHT22;28610;51.214;6.962;2022-10-04T13:32:42;19.10;61.80
42973;DHT22;28610;51.214;6.962;2022-10-04T13:35:35;18.70;95.70
42973;DHT22;28610;51.214;6.962;2022-10-04T13:42:00;19.10;62.50
42973;DHT22;28610;51.214;6.962;2022-10-04T13:45:04;19.10;64.30
42973;DHT22;28610;51.214;6.962;2022-10-04T13:48:06;19.20;65.40
42973;DHT22;28610;51.214;6.962;2022-10-04T13:51:02;19.20;63.10
42973;DHT22;28610;51.214;6.962;2022-10-04T13:53:56;19.10;62.40
42973;DHT22;28610;51.214;6.962;2022-10-04T13:57:17;18.80;65.10
42973;DHT22;28610;51.214;6.962;2022-10-04T14:00:09;19.10;62.40
42973;DHT22;28610;51.214;6.962;2022-10-04T14:03:08;19.20;62.80
42973;DHT22;28610;51.214;6.962;2022-10-04T14:06:18;19.30;63.00
42973;DHT22;28610;51.214;6.962;2022-10-04T14:09:23;19.40;63.60
42973;DHT22;28610;51.214;6.962;2022-10-04T14:12:44;19.10;62.60
42973;DHT22;28610;51.214;6.962;2022-10-04T14:16:11;19.10;64.10
42973;DHT22;28610;51.214;6.962;2022-10-04T14:19:36;19.10;63.00
42973;DHT22;28610;51.214;6.962;2022-10-04T14:23:07;19.00;62.10
42973;DHT22;28610;51.214;6.962;2022-10-04T14:26:27;19.00;62.60
42973;DHT22;28610;51.214;6.962;2022-10-04T14:29:41;19.00;63.80
42973;DHT22;28610;51.214;6.962;2022-10-04T14:33:04;19.00;62.70
42973;DHT22;28610;51.214;6.962;2022-10-04T14:36:07;19.10;64.60
42973;DHT22;28610;51.214;6.962;2022-10-04T14:39:17;19.20;65.20
42973;DHT22;28610;51.214;6.962;2022-10-04T14:45:48;19.20;66.40
42973;DHT22;28610;51.214;6.962;2022-10-04T14:48:50;19.10;66.80
42973;DHT22;28610;51.214;6.962;2022-10-04T14:52:04;19.10;66.10
42973;DHT22;28610;51.214;6.962;2022-10-04T14:55:09;19.00;67.40
42973;DHT22;28610;51.214;6.962;2022-10-04T14:58:04;19.00;67.90
42973;DHT22;28610;51.214;6.962;2022-10-04T15:01:17;18.90;69.40
42973;DHT22;28610;51.214;6.962;2022-10-04T15:04:17;18.90;69.20
42973;DHT22;28610;51.214;6.962;2022-10-04T15:07:16;18.80;69.60
42973;DHT22;28610;51.214;6.962;2022-10-04T15:10:06;18.70;70.40
42973;DHT22;28610;51.214;6.962;2022-10-04T15:13:00;18.70;72.10
42973;DHT22;28610;51.214;6.962;2022-10-04T15:15:56;18.70;71.60
42973;DHT22;28610;51.214;6.962;2022-10-04T15:18:52;18.70;71.90
42973;DHT22;28610;51.214;6.962;2022-10-04T15:21:46;18.70;72.10
42973;DHT22;28610;51.214;6.962;2022-10-04T15:24:47;18.70;73.00
42973;DHT22;28610;51.214;6.962;2022-10-04T15:27:46;18.60;71.80
42973;DHT22;28610;51.214;6.962;2022-10-04T15:30:45;18.60;72.10
42973;DHT22;28610;51.214;6.962;2022-10-04T15:33:37;18.60;72.90
42973;DHT22;28610;51.214;6.962;2022-10-04T15:36:45;18.60;72.60
42973;DHT22;28610;51.214;6.962;2022-10-04T15:43:11;18.50;73.60
42973;DHT22;28610;51.214;6.962;2022-10-04T15:46:30;18.30;99.90
42973;DHT22;28610;51.214;6.962;2022-10-04T15:49:35;18.30;76.10
42973;DHT22;28610;51.214;6.962;2022-10-04T15:56:13;18.10;80.60
42973;DHT22;28610;51.214;6.962;2022-10-04T15:59:30;18.00;82.80
42973;DHT22;28610;51.214;6.962;2022-10-04T16:05:36;18.10;83.00
42973;DHT22;28610;51.214;6.962;2022-10-04T16:08:30;18.10;82.60
42973;DHT22;28610;51.214;6.962;2022-10-04T16:11:34;18.00;81.40
42973;DHT22;28610;51.214;6.962;2022-10-04T16:14:43;18.00;83.60
42973;DHT22;28610;51.214;6.962;2022-10-04T16:17:43;17.80;84.70
42973;DHT22;28610;51.214;6.962;2022-10-04T16:20:52;17.70;87.40
42973;DHT22;28610;51.214;6.962;2022-10-04T16:23:41;17.70;86.80
42973;DHT22;28610;51.214;6.962;2022-10-04T16:29:56;17.50;88.30
42973;DHT22;28610;51.214;6.962;2022-10-04T16:33:00;17.40;89.40
42973;DHT22;28610;51.214;6.962;2022-10-04T16:36:00;17.20;90.10
42973;DHT22;28610;51.214;6.962;2022-10-04T16:38:48;17.10;90.20
42973;DHT22;28610;51.214;6.962;2022-10-04T16:41:56;17.00;90.50
42973;DHT22;28610;51.214;6.962;2022-10-04T16:44:49;17.00;90.80
42973;DHT22;28610;51.214;6.962;2022-10-04T16:47:39;16.90;90.80
42973;DHT22;28610;51.214;6.962;2022-10-04T16:54:12;16.70;91.10
42973;DHT22;28610;51.214;6.962;2022-10-04T16:57:18;16.70;99.90
42973;DHT22;28610;51.214;6.962;2022-10-04T17:00:31;16.60;91.70
42973;DHT22;28610;51.214;6.962;2022-10-04T17:03:24;16.50;91.60
42973;DHT22;28610;51.214;6.962;2022-10-04T17:06:14;16.40;91.70
42973;DHT22;28610;51.214;6.962;2022-10-04T17:09:10;16.50;92.40
42973;DHT22;28610;51.214;6.962;2022-10-04T17:12:11;16.40;91.90
42973;DHT22;28610;51.214;6.962;2022-10-04T17:15:18;16.30;92.00
42973;DHT22;28610;51.214;6.962;2022-10-04T17:18:24;16.30;92.20
42973;DHT22;28610;51.214;6.962;2022-10-04T17:21:24;16.20;92.00
42973;DHT22;28610;51.214;6.962;2022-10-04T17:24:20;16.20;92.10
42973;DHT22;28610;51.214;6.962;2022-10-04T17:27:40;16.10;92.30
42973;DHT22;28610;51.214;6.962;2022-10-04T17:30:30;16.10;92.80
42973;DHT22;28610;51.214;6.962;2022-10-04T17:33:35;16.10;92.80
42973;DHT22;28610;51.214;6.962;2022-10-04T17:36:37;16.00;93.30
42973;DHT22;28610;51.214;6.962;2022-10-04T17:39:40;15.90;93.50
42973;DHT22;28610;51.214;6.962;2022-10-04T17:42:34;15.80;93.60
42973;DHT22;28610;51.214;6.962;2022-10-04T17:45:43;15.80;93.60
42973;DHT22;28610;51.214;6.962;2022-10-04T17:48:38;15.70;93.80
42973;DHT22;28610;51.214;6.962;2022-10-04T17:51:45;15.70;93.90
42973;DHT22;28610;51.214;6.962;2022-10-04T17:54:59;15.70;93.90
42973;DHT22;28610;51.214;6.962;2022-10-04T17:58:03;15.60;94.30
42973;DHT22;28610;51.214;6.962;2022-10-04T18:00:59;15.40;94.70
42973;DHT22;28610;51.214;6.962;2022-10-04T18:03:54;15.40;94.50
42973;DHT22;28610;51.214;6.962;2022-10-04T18:06:47;15.40;94.40
42973;DHT22;28610;51.214;6.962;2022-10-04T18:09:41;15.40;94.50
42973;DHT22;28610;51.214;6.962;2022-10-04T18:12:30;15.40;94.60
42973;DHT22;28610;51.214;6.962;2022-10-04T18:15:21;15.30;94.70
42973;DHT22;28610;51.214;6.962;2022-10-04T18:18:15;15.30;94.90
42973;DHT22;28610;51.214;6.962;2022-10-04T18:21:05;15.30;94.90
42973;DHT22;28610;51.214;6.962;2022-10-04T18:24:19;15.20;95.00
42973;DHT22;28610;51.214;6.962;2022-10-04T18:27:16;15.30;95.10
42973;DHT22;28610;51.214;6.962;2022-10-04T18:30:11;15.20;95.20
42973;DHT22;28610;51.214;6.962;2022-10-04T18:32:57;15.10;95.00
42973;DHT22;28610;51.214;6.962;2022-10-04T18:35:50;15.10;94.90
42973;DHT22;28610;51.214;6.962;2022-10-04T18:38:40;15.10;94.90
42973;DHT22;28610;51.214;6.962;2022-10-04T18:41:26;15.10;95.10
42973;DHT22;28610;51.214;6.962;2022-10-04T18:44:42;15.10;95.20
42973;DHT22;28610;51.214;6.962;2022-10-04T18:47:32;15.00;95.60
42973;DHT22;28610;51.214;6.962;2022-10-04T18:50:29;14.90;95.70
42973;DHT22;28610;51.214;6.962;2022-10-04T18:53:32;14.90;95.80
42973;DHT22;28610;51.214;6.962;2022-10-04T18:56:21;14.80;95.80
42973;DHT22;28610;51.214;6.962;2022-10-04T18:59:14;14.80;96.10
42973;DHT22;28610;51.214;6.962;2022-10-04T19:02:27;14.80;95.90
42973;DHT22;28610;51.214;6.962;2022-10-04T19:05:17;14.70;99.90
42973;DHT22;28610;51.214;6.962;2022-10-04T19:08:10;14.70;95.60
42973;DHT22;28610;51.214;6.962;2022-10-04T19:11:01;14.70;96.00
42973;DHT22;28610;51.214;6.962;2022-10-04T19:13:52;15.40;99.90
42973;DHT22;28610;51.214;6.962;2022-10-04T19:16:46;14.80;99.90
42973;DHT22;28610;51.214;6.962;2022-10-04T19:19:45;14.90;99.90
42973;DHT22;28610;51.214;6.962;2022-10-04T19:22:41;14.10;99.90
42973;DHT22;28610;51.214;6.962;2022-10-04T19:25:34;14.40;99.90
42973;DHT22;28610;51.214;6.962;2022-10-04T19:28:25;14.70;99.90
42973;DHT22;28610;51.214;6.962;2022-10-04T19:31:17;14.80;99.90
42973;DHT22;28610;51.214;6.962;2022-10-04T19:34:09;14.10;99.90
42973;DHT22;28610;51.214;6.962;2022-10-04T19:36:59;14.50;96.30
42973;DHT22;28610;51.214;6.962;2022-10-04T19:39:51;14.60;99.90
42973;DHT22;28610;51.214;6.962;2022-10-04T19:42:43;14.50;99.90
42973;DHT22;28610;51.214;6.962;2022-10-04T19:45:36;14.50;96.50
42973;DHT22;28610;51.214;6.962;2022-10-04T19:48:34;14.50;99.90
42973;DHT22;28610;51.214;6.962;2022-10-04T19:51:26;14.30;99.90